sensor_id;sensor_type;location;lat;lon;timestamp;temperature;humidity
53272;DHT22;39160;48.580;7.756;2023-01-08T00:03:46;11.40;99.90
53272;DHT22;39160;48.580;7.756;2023-01-08T00:08:37;11.40;99.90
53272;DHT22;39160;48.580;7.756;2023-01-08T00:13:28;11.30;99.90
53272;DHT22;39160;48.580;7.756;2023-01-08T00:18:19;11.30;99.90
53272;DHT22;39160;48.580;7.756;2023-01-08T00:23:11;11.30;99.90
53272;DHT22;39160;48.580;7.756;2023-01-08T00:28:02;11.30;99.90
53272;DHT22;39160;48.580;7.756;2023-01-08T00:32:52;11.20;99.90
53272;DHT22;39160;48.580;7.756;2023-01-08T00:37:43;11.20;99.90
53272;DHT22;39160;48.580;7.756;2023-01-08T00:42:34;11.20;99.90
53272;DHT22;39160;48.580;7.756;2023-01-08T00:47:24;11.20;99.90
53272;DHT22;39160;48.580;7.756;2023-01-08T00:52:15;11.30;99.90
53272;DHT22;39160;48.580;7.756;2023-01-08T00:57:05;11.30;99.90
53272;DHT22;39160;48.580;7.756;2023-01-08T01:01:56;11.30;99.90
53272;DHT22;39160;48.580;7.756;2023-01-08T01:06:47;11.30;99.90
53272;DHT22;39160;48.580;7.756;2023-01-08T01:11:37;11.30;99.90
53272;DHT22;39160;48.580;7.756;2023-01-08T01:16:28;11.30;99.90
53272;DHT22;39160;48.580;7.756;2023-01-08T01:21:24;11.40;99.90
53272;DHT22;39160;48.580;7.756;2023-01-08T01:26:16;11.40;99.90
53272;DHT22;39160;48.580;7.756;2023-01-08T01:31:09;11.40;99.90
53272;DHT22;39160;48.580;7.756;2023-01-08T01:36:02;11.40;99.90
53272;DHT22;39160;48.580;7.756;2023-01-08T01:40:52;11.40;99.90
53272;DHT22;39160;48.580;7.756;2023-01-08T01:45:43;11.50;99.90
53272;DHT22;39160;48.580;7.756;2023-01-08T01:50:44;11.50;99.90
53272;DHT22;39160;48.580;7.756;2023-01-08T01:55:38;11.50;99.90
53272;DHT22;39160;48.580;7.756;2023-01-08T02:00:31;11.40;99.90
53272;DHT22;39160;48.580;7.756;2023-01-08T02:05:23;11.40;99.90
53272;DHT22;39160;48.580;7.756;2023-01-08T02:10:27;11.40;99.90
53272;DHT22;39160;48.580;7.756;2023-01-08T02:15:26;11.50;99.90
53272;DHT22;39160;48.580;7.756;2023-01-08T02:20:31;11.40;99.90
53272;DHT22;39160;48.580;7.756;2023-01-08T02:30:53;11.50;99.90
53272;DHT22;39160;48.580;7.756;2023-01-08T02:35:54;11.50;99.90
53272;DHT22;39160;48.580;7.756;2023-01-08T02:41:05;11.50;99.90
53272;DHT22;39160;48.580;7.756;2023-01-08T02:46:00;11.50;99.90
53272;DHT22;39160;48.580;7.756;2023-01-08T02:50:59;11.50;99.90
53272;DHT22;39160;48.580;7.756;2023-01-08T02:55:57;11.60;99.90
53272;DHT22;39160;48.580;7.756;2023-01-08T03:00:49;11.60;99.90
53272;DHT22;39160;48.580;7.756;2023-01-08T03:05:43;11.60;99.90
53272;DHT22;39160;48.580;7.756;2023-01-08T03:10:36;11.50;99.90
53272;DHT22;39160;48.580;7.756;2023-01-08T03:15:35;11.50;99.90
53272;DHT22;39160;48.580;7.756;2023-01-08T03:20:27;11.40;99.90
53272;DHT22;39160;48.580;7.756;2023-01-08T03:25:22;11.40;99.90
53272;DHT22;39160;48.580;7.756;2023-01-08T03:30:16;11.30;99.90
53272;DHT22;39160;48.580;7.756;2023-01-08T03:35:11;11.30;99.90
53272;DHT22;39160;48.580;7.756;2023-01-08T03:40:15;11.20;99.90
53272;DHT22;39160;48.580;7.756;2023-01-08T03:45:07;11.20;99.90
53272;DHT22;39160;48.580;7.756;2023-01-08T03:50:00;11.10;99.90
53272;DHT22;39160;48.580;7.756;2023-01-08T03:54:51;11.10;99.90
53272;DHT22;39160;48.580;7.756;2023-01-08T03:59:42;11.10;99.90
53272;DHT22;39160;48.580;7.756;2023-01-08T04:04:33;11.10;99.90
53272;DHT22;39160;48.580;7.756;2023-01-08T04:09:24;11.00;99.90
53272;DHT22;39160;48.580;7.756;2023-01-08T04:14:15;10.90;99.90
53272;DHT22;39160;48.580;7.756;2023-01-08T04:19:05;10.80;99.90
53272;DHT22;39160;48.580;7.756;2023-01-08T04:23:56;10.70;99.90
53272;DHT22;39160;48.580;7.756;2023-01-08T04:28:47;10.70;99.90
53272;DHT22;39160;48.580;7.756;2023-01-08T04:33:38;10.70;99.90
53272;DHT22;39160;48.580;7.756;2023-01-08T04:38:28;10.60;99.90
53272;DHT22;39160;48.580;7.756;2023-01-08T04:43:19;10.60;99.90
53272;DHT22;39160;48.580;7.756;2023-01-08T04:48:10;10.60;99.90
53272;DHT22;39160;48.580;7.756;2023-01-08T04:53:00;10.60;99.90
53272;DHT22;39160;48.580;7.756;2023-01-08T04:57:51;10.60;99.90
53272;DHT22;39160;48.580;7.756;2023-01-08T05:02:41;10.50;99.90
53272;DHT22;39160;48.580;7.756;2023-01-08T05:07:32;10.60;99.90
53272;DHT22;39160;48.580;7.756;2023-01-08T05:12:23;10.50;99.90
53272;DHT22;39160;48.580;7.756;2023-01-08T05:17:13;10.60;99.90
53272;DHT22;39160;48.580;7.756;2023-01-08T05:22:04;10.60;99.90
53272;DHT22;39160;48.580;7.756;2023-01-08T05:26:56;10.70;99.90
53272;DHT22;39160;48.580;7.756;2023-01-08T05:31:47;10.60;99.90
53272;DHT22;39160;48.580;7.756;2023-01-08T05:36:37;10.60;99.90
53272;DHT22;39160;48.580;7.756;2023-01-08T05:41:28;10.60;99.90
53272;DHT22;39160;48.580;7.756;2023-01-08T05:46:18;10.60;99.90
53272;DHT22;39160;48.580;7.756;2023-01-08T05:51:09;10.60;99.90
53272;DHT22;39160;48.580;7.756;2023-01-08T05:56:01;10.60;99.90
53272;DHT22;39160;48.580;7.756;2023-01-08T06:00:53;10.60;99.90
53272;DHT22;39160;48.580;7.756;2023-01-08T06:05:44;10.50;99.90
53272;DHT22;39160;48.580;7.756;2023-01-08T06:10:37;10.60;99.90
53272;DHT22;39160;48.580;7.756;2023-01-08T06:15:27;10.70;99.90
53272;DHT22;39160;48.580;7.756;2023-01-08T06:20:18;10.60;99.90
53272;DHT22;39160;48.580;7.756;2023-01-08T06:25:09;10.60;99.90
53272;DHT22;39160;48.580;7.756;2023-01-08T06:29:59;10.50;99.90
53272;DHT22;39160;48.580;7.756;2023-01-08T06:34:50;10.40;99.90
53272;DHT22;39160;48.580;7.756;2023-01-08T06:39:41;10.40;99.90
53272;DHT22;39160;48.580;7.756;2023-01-08T06:44:31;10.40;99.90
53272;DHT22;39160;48.580;7.756;2023-01-08T06:49:22;10.40;99.90
53272;DHT22;39160;48.580;7.756;2023-01-08T06:54:13;10.40;99.90
53272;DHT22;39160;48.580;7.756;2023-01-08T06:59:03;10.40;99.90
53272;DHT22;39160;48.580;7.756;2023-01-08T07:03:54;10.40;99.90
53272;DHT22;39160;48.580;7.756;2023-01-08T07:08:45;10.40;99.90
53272;DHT22;39160;48.580;7.756;2023-01-08T07:13:36;10.40;99.90
53272;DHT22;39160;48.580;7.756;2023-01-08T07:18:27;10.40;99.90
53272;DHT22;39160;48.580;7.756;2023-01-08T07:23:17;10.40;99.90
53272;DHT22;39160;48.580;7.756;2023-01-08T07:28:10;10.30;99.90
53272;DHT22;39160;48.580;7.756;2023-01-08T07:33:02;10.30;99.90
53272;DHT22;39160;48.580;7.756;2023-01-08T07:37:53;10.30;99.90
53272;DHT22;39160;48.580;7.756;2023-01-08T07:42:43;10.30;99.90
53272;DHT22;39160;48.580;7.756;2023-01-08T07:47:34;10.30;99.90
53272;DHT22;39160;48.580;7.756;2023-01-08T07:52:25;10.40;99.90
53272;DHT22;39160;48.580;7.756;2023-01-08T07:57:15;10.30;99.90
53272;DHT22;39160;48.580;7.756;2023-01-08T08:02:08;10.30;99.90
53272;DHT22;39160;48.580;7.756;2023-01-08T08:06:59;10.30;99.90
53272;DHT22;39160;48.580;7.756;2023-01-08T08:11:50;10.40;99.90
53272;DHT22;39160;48.580;7.756;2023-01-08T08:16:40;10.30;99.90
53272;DHT22;39160;48.580;7.756;2023-01-08T08:21:31;10.10;99.90
53272;DHT22;39160;48.580;7.756;2023-01-08T08:26:22;10.10;99.90
53272;DHT22;39160;48.580;7.756;2023-01-08T08:31:13;10.00;99.90
53272;DHT22;39160;48.580;7.756;2023-01-08T08:36:04;10.00;99.90
53272;DHT22;39160;48.580;7.756;2023-01-08T08:40:54;10.00;99.90
53272;DHT22;39160;48.580;7.756;2023-01-08T08:45:45;10.10;99.90
53272;DHT22;39160;48.580;7.756;2023-01-08T08:50:36;10.10;99.90
53272;DHT22;39160;48.580;7.756;2023-01-08T08:55:27;10.10;99.90
53272;DHT22;39160;48.580;7.756;2023-01-08T09:00:18;10.20;99.90
53272;DHT22;39160;48.580;7.756;2023-01-08T09:05:09;10.20;99.90
53272;DHT22;39160;48.580;7.756;2023-01-08T09:10:01;10.20;99.90
53272;DHT22;39160;48.580;7.756;2023-01-08T09:14:51;10.10;99.90
53272;DHT22;39160;48.580;7.756;2023-01-08T09:19:44;10.20;99.90
53272;DHT22;39160;48.580;7.756;2023-01-08T09:24:34;10.30;99.90
53272;DHT22;39160;48.580;7.756;2023-01-08T09:29:25;10.30;99.90
53272;DHT22;39160;48.580;7.756;2023-01-08T09:34:18;10.30;99.90
53272;DHT22;39160;48.580;7.756;2023-01-08T09:39:09;10.30;99.90
53272;DHT22;39160;48.580;7.756;2023-01-08T09:44:02;10.50;99.90
53272;DHT22;39160;48.580;7.756;2023-01-08T09:48:57;10.50;99.90
53272;DHT22;39160;48.580;7.756;2023-01-08T09:53:55;10.60;99.90
53272;DHT22;39160;48.580;7.756;2023-01-08T09:58:52;10.50;99.90
53272;DHT22;39160;48.580;7.756;2023-01-08T10:08:37;10.70;99.90
53272;DHT22;39160;48.580;7.756;2023-01-08T10:13:28;10.80;99.90
53272;DHT22;39160;48.580;7.756;2023-01-08T10:18:22;11.00;99.90
53272;DHT22;39160;48.580;7.756;2023-01-08T10:23:15;11.00;99.90
53272;DHT22;39160;48.580;7.756;2023-01-08T10:28:18;11.00;99.90
53272;DHT22;39160;48.580;7.756;2023-01-08T10:33:17;11.10;99.90
53272;DHT22;39160;48.580;7.756;2023-01-08T10:38:31;11.10;99.90
53272;DHT22;39160;48.580;7.756;2023-01-08T10:43:35;11.20;99.90
53272;DHT22;39160;48.580;7.756;2023-01-08T10:48:34;11.30;99.90
53272;DHT22;39160;48.580;7.756;2023-01-08T10:53:27;11.30;99.90
53272;DHT22;39160;48.580;7.756;2023-01-08T10:58:18;11.40;99.90
53272;DHT22;39160;48.580;7.756;2023-01-08T11:03:39;11.50;99.90
53272;DHT22;39160;48.580;7.756;2023-01-08T11:08:30;11.40;99.90
53272;DHT22;39160;48.580;7.756;2023-01-08T11:13:20;11.30;99.90
53272;DHT22;39160;48.580;7.756;2023-01-08T11:18:22;11.30;99.90
53272;DHT22;39160;48.580;7.756;2023-01-08T11:28:05;11.70;99.90
53272;DHT22;39160;48.580;7.756;2023-01-08T11:33:11;11.70;99.90
53272;DHT22;39160;48.580;7.756;2023-01-08T11:38:05;11.70;99.90
53272;DHT22;39160;48.580;7.756;2023-01-08T11:43:15;11.70;99.90
53272;DHT22;39160;48.580;7.756;2023-01-08T11:58:11;11.60;99.90
53272;DHT22;39160;48.580;7.756;2023-01-08T12:03:29;11.50;99.90
53272;DHT22;39160;48.580;7.756;2023-01-08T12:34:11;11.60;99.90
53272;DHT22;39160;48.580;7.756;2023-01-08T12:39:09;11.50;99.90
53272;DHT22;39160;48.580;7.756;2023-01-08T12:44:03;11.50;99.90
53272;DHT22;39160;48.580;7.756;2023-01-08T12:48:55;11.50;99.90
53272;DHT22;39160;48.580;7.756;2023-01-08T12:53:54;11.50;99.90
53272;DHT22;39160;48.580;7.756;2023-01-08T12:59:06;11.60;99.90
53272;DHT22;39160;48.580;7.756;2023-01-08T13:03:59;11.80;99.90
53272;DHT22;39160;48.580;7.756;2023-01-08T13:08:53;11.80;99.90
53272;DHT22;39160;48.580;7.756;2023-01-08T13:13:44;11.90;99.90
53272;DHT22;39160;48.580;7.756;2023-01-08T13:18:35;11.90;99.90
53272;DHT22;39160;48.580;7.756;2023-01-08T13:23:31;11.80;99.90
53272;DHT22;39160;48.580;7.756;2023-01-08T13:28:37;11.80;99.90
53272;DHT22;39160;48.580;7.756;2023-01-08T13:38:25;11.90;99.90
53272;DHT22;39160;48.580;7.756;2023-01-08T13:43:20;11.90;99.90
53272;DHT22;39160;48.580;7.756;2023-01-08T13:48:23;11.90;99.90
53272;DHT22;39160;48.580;7.756;2023-01-08T13:53:14;11.90;99.90
53272;DHT22;39160;48.580;7.756;2023-01-08T13:58:16;11.90;99.90
53272;DHT22;39160;48.580;7.756;2023-01-08T14:03:43;11.90;99.90
53272;DHT22;39160;48.580;7.756;2023-01-08T14:08:34;11.80;99.90
53272;DHT22;39160;48.580;7.756;2023-01-08T14:13:30;11.80;99.90
53272;DHT22;39160;48.580;7.756;2023-01-08T14:18:21;11.70;99.90
53272;DHT22;39160;48.580;7.756;2023-01-08T14:23:25;11.90;99.90
53272;DHT22;39160;48.580;7.756;2023-01-08T14:28:19;11.80;99.90
53272;DHT22;39160;48.580;7.756;2023-01-08T14:33:11;11.70;99.90
53272;DHT22;39160;48.580;7.756;2023-01-08T14:38:02;11.70;99.90
53272;DHT22;39160;48.580;7.756;2023-01-08T14:42:55;11.60;99.90
53272;DHT22;39160;48.580;7.756;2023-01-08T14:47:49;11.60;99.90
53272;DHT22;39160;48.580;7.756;2023-01-08T14:52:40;11.70;99.90
53272;DHT22;39160;48.580;7.756;2023-01-08T14:57:31;11.70;99.90
53272;DHT22;39160;48.580;7.756;2023-01-08T15:02:26;11.60;99.90
53272;DHT22;39160;48.580;7.756;2023-01-08T15:07:23;11.60;99.90
53272;DHT22;39160;48.580;7.756;2023-01-08T15:12:28;11.60;99.90
53272;DHT22;39160;48.580;7.756;2023-01-08T15:17:24;11.50;99.90
53272;DHT22;39160;48.580;7.756;2023-01-08T15:22:24;11.60;99.90
53272;DHT22;39160;48.580;7.756;2023-01-08T15:27:18;11.60;99.90
53272;DHT22;39160;48.580;7.756;2023-01-08T15:37:05;11.70;99.90
53272;DHT22;39160;48.580;7.756;2023-01-08T15:42:04;11.60;99.90
53272;DHT22;39160;48.580;7.756;2023-01-08T15:47:18;11.50;99.90
53272;DHT22;39160;48.580;7.756;2023-01-08T15:52:08;11.40;99.90
53272;DHT22;39160;48.580;7.756;2023-01-08T15:56:59;11.40;99.90
53272;DHT22;39160;48.580;7.756;2023-01-08T16:01:50;11.40;99.90
53272;DHT22;39160;48.580;7.756;2023-01-08T16:06:40;11.30;99.90
53272;DHT22;39160;48.580;7.756;2023-01-08T16:11:31;11.30;99.90
53272;DHT22;39160;48.580;7.756;2023-01-08T16:16:22;11.40;99.90
53272;DHT22;39160;48.580;7.756;2023-01-08T16:21:12;11.30;99.90
53272;DHT22;39160;48.580;7.756;2023-01-08T16:26:08;11.30;99.90
53272;DHT22;39160;48.580;7.756;2023-01-08T16:31:00;11.20;99.90
53272;DHT22;39160;48.580;7.756;2023-01-08T16:35:57;11.10;99.90
53272;DHT22;39160;48.580;7.756;2023-01-08T16:40:48;11.10;99.90
53272;DHT22;39160;48.580;7.756;2023-01-08T16:45:44;11.10;99.90
53272;DHT22;39160;48.580;7.756;2023-01-08T16:50:35;11.20;99.90
53272;DHT22;39160;48.580;7.756;2023-01-08T16:55:25;11.20;99.90
53272;DHT22;39160;48.580;7.756;2023-01-08T17:00:17;11.10;99.90
53272;DHT22;39160;48.580;7.756;2023-01-08T17:05:08;11.10;99.90
53272;DHT22;39160;48.580;7.756;2023-01-08T17:09:58;11.10;99.90
53272;DHT22;39160;48.580;7.756;2023-01-08T17:14:49;11.00;99.90
53272;DHT22;39160;48.580;7.756;2023-01-08T17:19:40;11.00;99.90
53272;DHT22;39160;48.580;7.756;2023-01-08T17:24:30;11.00;99.90
53272;DHT22;39160;48.580;7.756;2023-01-08T17:29:21;11.00;99.90
53272;DHT22;39160;48.580;7.756;2023-01-08T17:34:12;10.90;99.90
53272;DHT22;39160;48.580;7.756;2023-01-08T17:39:03;10.90;99.90
53272;DHT22;39160;48.580;7.756;2023-01-08T17:43:54;10.90;99.90
53272;DHT22;39160;48.580;7.756;2023-01-08T17:48:44;10.80;99.90
53272;DHT22;39160;48.580;7.756;2023-01-08T17:53:35;10.90;99.90
53272;DHT22;39160;48.580;7.756;2023-01-08T17:58:26;10.90;99.90
53272;DHT22;39160;48.580;7.756;2023-01-08T18:03:16;10.90;99.90
53272;DHT22;39160;48.580;7.756;2023-01-08T18:08:07;11.00;99.90
53272;DHT22;39160;48.580;7.756;2023-01-08T18:12:59;11.00;99.90
53272;DHT22;39160;48.580;7.756;2023-01-08T18:17:49;11.00;99.90
53272;DHT22;39160;48.580;7.756;2023-01-08T18:22:41;11.00;99.90
53272;DHT22;39160;48.580;7.756;2023-01-08T18:27:34;11.00;99.90
53272;DHT22;39160;48.580;7.756;2023-01-08T18:32:25;11.00;99.90
53272;DHT22;39160;48.580;7.756;2023-01-08T18:37:15;11.00;99.90
53272;DHT22;39160;48.580;7.756;2023-01-08T18:42:07;11.00;99.90
53272;DHT22;39160;48.580;7.756;2023-01-08T18:47:16;10.90;99.90
53272;DHT22;39160;48.580;7.756;2023-01-08T18:52:07;11.00;99.90
53272;DHT22;39160;48.580;7.756;2023-01-08T18:56:57;10.90;99.90
53272;DHT22;39160;48.580;7.756;2023-01-08T19:01:48;10.90;99.90
53272;DHT22;39160;48.580;7.756;2023-01-08T19:06:39;10.80;99.90
53272;DHT22;39160;48.580;7.756;2023-01-08T19:11:29;10.80;99.90
53272;DHT22;39160;48.580;7.756;2023-01-08T19:16:20;10.80;99.90
53272;DHT22;39160;48.580;7.756;2023-01-08T19:21:12;10.80;99.90
53272;DHT22;39160;48.580;7.756;2023-01-08T19:26:05;10.70;99.90
53272;DHT22;39160;48.580;7.756;2023-01-08T19:30:57;10.70;99.90
53272;DHT22;39160;48.580;7.756;2023-01-08T19:35:48;10.80;99.90
53272;DHT22;39160;48.580;7.756;2023-01-08T19:40:39;10.70;99.90
53272;DHT22;39160;48.580;7.756;2023-01-08T19:45:30;10.70;99.90
53272;DHT22;39160;48.580;7.756;2023-01-08T19:50:21;10.70;99.90
53272;DHT22;39160;48.580;7.756;2023-01-08T19:55:12;10.60;99.90
53272;DHT22;39160;48.580;7.756;2023-01-08T20:00:04;10.70;99.90
53272;DHT22;39160;48.580;7.756;2023-01-08T20:04:54;10.70;99.90
53272;DHT22;39160;48.580;7.756;2023-01-08T20:09:45;10.70;99.90
53272;DHT22;39160;48.580;7.756;2023-01-08T20:14:36;10.70;99.90
53272;DHT22;39160;48.580;7.756;2023-01-08T20:19:26;10.70;99.90
53272;DHT22;39160;48.580;7.756;2023-01-08T20:24:20;10.70;99.90
53272;DHT22;39160;48.580;7.756;2023-01-08T20:29:12;10.70;99.90
53272;DHT22;39160;48.580;7.756;2023-01-08T20:34:05;10.60;99.90
53272;DHT22;39160;48.580;7.756;2023-01-08T20:38:59;10.70;99.90
53272;DHT22;39160;48.580;7.756;2023-01-08T20:43:51;10.70;99.90
53272;DHT22;39160;48.580;7.756;2023-01-08T20:48:42;10.60;99.90
53272;DHT22;39160;48.580;7.756;2023-01-08T20:53:34;10.60;99.90
53272;DHT22;39160;48.580;7.756;2023-01-08T20:58:25;10.60;99.90
53272;DHT22;39160;48.580;7.756;2023-01-08T21:03:15;10.50;99.90
53272;DHT22;39160;48.580;7.756;2023-01-08T21:08:07;10.60;99.90
53272;DHT22;39160;48.580;7.756;2023-01-08T21:12:58;10.50;99.90
53272;DHT22;39160;48.580;7.756;2023-01-08T21:17:49;10.40;99.90
53272;DHT22;39160;48.580;7.756;2023-01-08T21:22:40;10.40;99.90
53272;DHT22;39160;48.580;7.756;2023-01-08T21:27:31;10.40;99.90
53272;DHT22;39160;48.580;7.756;2023-01-08T21:32:22;10.40;99.90
53272;DHT22;39160;48.580;7.756;2023-01-08T21:37:12;10.40;99.90
53272;DHT22;39160;48.580;7.756;2023-01-08T21:42:04;10.40;99.90
53272;DHT22;39160;48.580;7.756;2023-01-08T21:47:15;10.30;99.90
53272;DHT22;39160;48.580;7.756;2023-01-08T21:52:07;10.30;99.90
53272;DHT22;39160;48.580;7.756;2023-01-08T21:57:16;10.30;99.90
53272;DHT22;39160;48.580;7.756;2023-01-08T22:02:15;10.20;99.90
53272;DHT22;39160;48.580;7.756;2023-01-08T22:07:06;10.30;99.90
53272;DHT22;39160;48.580;7.756;2023-01-08T22:11:57;10.20;99.90
53272;DHT22;39160;48.580;7.756;2023-01-08T22:16:48;10.20;99.90
53272;DHT22;39160;48.580;7.756;2023-01-08T22:21:39;10.20;99.90
53272;DHT22;39160;48.580;7.756;2023-01-08T22:26:30;10.10;99.90
53272;DHT22;39160;48.580;7.756;2023-01-08T22:31:22;10.10;99.90
53272;DHT22;39160;48.580;7.756;2023-01-08T22:36:13;10.10;99.90
53272;DHT22;39160;48.580;7.756;2023-01-08T22:41:07;10.10;99.90
53272;DHT22;39160;48.580;7.756;2023-01-08T22:45:59;10.00;99.90
53272;DHT22;39160;48.580;7.756;2023-01-08T22:50:50;10.00;99.90
53272;DHT22;39160;48.580;7.756;2023-01-08T22:55:42;10.00;99.90
53272;DHT22;39160;48.580;7.756;2023-01-08T23:00:33;10.00;99.90
53272;DHT22;39160;48.580;7.756;2023-01-08T23:05:24;10.00;99.90
53272;DHT22;39160;48.580;7.756;2023-01-08T23:10:15;10.00;99.90
53272;DHT22;39160;48.580;7.756;2023-01-08T23:15:06;10.10;99.90
53272;DHT22;39160;48.580;7.756;2023-01-08T23:19:57;10.10;99.90
53272;DHT22;39160;48.580;7.756;2023-01-08T23:24:48;10.00;99.90
53272;DHT22;39160;48.580;7.756;2023-01-08T23:29:38;10.10;99.90
53272;DHT22;39160;48.580;7.756;2023-01-08T23:34:29;10.00;99.90
53272;DHT22;39160;48.580;7.756;2023-01-08T23:39:19;10.00;99.90
53272;DHT22;39160;48.580;7.756;2023-01-08T23:44:12;10.00;99.90
53272;DHT22;39160;48.580;7.756;2023-01-08T23:49:04;10.00;99.90
53272;DHT22;39160;48.580;7.756;2023-01-08T23:53:56;10.00;99.90
53272;DHT22;39160;48.580;7.756;2023-01-08T23:58:48;10.00;99.90
